createdAt,value
2023-05-11T00:01:52.919Z,17.47
2023-05-11T00:04:19.656Z,17.62
2023-05-11T00:06:46.758Z,17.65
2023-05-11T00:09:13.795Z,17.84
2023-05-11T00:11:41.129Z,17.98
2023-05-11T00:14:07.985Z,17.98
2023-05-11T00:16:34.929Z,18.12
2023-05-11T00:19:02.318Z,18.06
2023-05-11T00:21:29.203Z,18.07
2023-05-11T00:24:00.203Z,17.27
2023-05-11T00:26:27.826Z,17.34
2023-05-11T00:28:54.960Z,17.31
2023-05-11T00:31:21.964Z,17.20
2023-05-11T00:33:48.783Z,16.61
2023-05-11T00:36:16.042Z,17.46
2023-05-11T00:38:42.847Z,17.05
2023-05-11T00:41:10.069Z,17.16
2023-05-11T00:43:36.918Z,17.00
2023-05-11T00:46:04.315Z,17.00
2023-05-11T00:48:31.356Z,16.80
2023-05-11T00:51:00.089Z,16.68
2023-05-11T00:53:27.180Z,16.48
2023-05-11T00:55:54.375Z,16.33
2023-05-11T00:58:21.652Z,16.58
2023-05-11T01:00:48.463Z,16.66
2023-05-11T01:03:16.453Z,17.09
2023-05-11T01:05:51.173Z,17.03
2023-05-11T01:08:22.823Z,16.91
2023-05-11T01:10:56.835Z,16.84
2023-05-11T01:14:09.518Z,17.09
2023-05-11T01:16:39.040Z,17.26
2023-05-11T01:19:26.592Z,17.32
2023-05-11T01:21:54.017Z,17.28
2023-05-11T01:24:24.017Z,17.01
2023-05-11T01:27:03.531Z,17.35
2023-05-11T01:29:47.894Z,17.48
2023-05-11T01:32:22.852Z,17.69
2023-05-11T01:34:58.630Z,17.14
2023-05-11T01:37:27.042Z,17.10
2023-05-11T01:40:04.755Z,17.03
2023-05-11T01:42:57.098Z,17.22
2023-05-11T01:45:26.447Z,16.80
2023-05-11T01:47:53.685Z,16.78
2023-05-11T01:50:23.034Z,16.96
2023-05-11T01:52:50.715Z,17.16
2023-05-11T01:55:20.529Z,17.25
2023-05-11T01:57:48.723Z,16.88
2023-05-11T02:00:17.370Z,16.68
2023-05-11T02:02:49.357Z,16.60
2023-05-11T02:05:22.584Z,16.42
2023-05-11T02:07:51.702Z,16.96
2023-05-11T02:10:19.553Z,16.75
2023-05-11T02:12:47.677Z,16.63
2023-05-11T02:15:16.767Z,16.78
2023-05-11T02:17:44.133Z,16.79
2023-05-11T02:20:11.364Z,16.40
2023-05-11T02:22:39.155Z,16.15
2023-05-11T02:25:07.513Z,15.74
2023-05-11T02:27:36.056Z,15.59
2023-05-11T02:30:06.151Z,15.65
2023-05-11T02:32:36.035Z,15.49
2023-05-11T02:35:10.531Z,15.73
2023-05-11T02:37:42.504Z,15.81
2023-05-11T02:40:19.239Z,15.82
2023-05-11T02:42:52.149Z,15.82
2023-05-11T02:45:19.868Z,15.83
2023-05-11T02:47:53.363Z,15.92
2023-05-11T02:50:25.589Z,15.97
2023-05-11T02:52:55.788Z,15.79
2023-05-11T02:55:23.727Z,15.75
2023-05-11T02:57:50.946Z,15.96
2023-05-11T03:00:18.260Z,15.94
2023-05-11T03:02:46.637Z,16.12
2023-05-11T03:05:15.259Z,15.84
2023-05-11T03:07:43.170Z,16.12
2023-05-11T03:10:10.441Z,15.90
2023-05-11T03:12:40.300Z,15.94
2023-05-11T03:15:08.591Z,16.39
2023-05-11T03:17:37.225Z,16.09
2023-05-11T03:20:07.430Z,15.96
2023-05-11T03:22:35.583Z,16.02
2023-05-11T03:25:04.228Z,15.88
2023-05-11T03:27:32.417Z,15.68
2023-05-11T03:30:00.886Z,15.86
2023-05-11T03:32:28.053Z,15.76
2023-05-11T03:34:55.017Z,15.48
2023-05-11T03:37:22.500Z,15.78
2023-05-11T03:39:52.785Z,16.01
2023-05-11T03:42:20.798Z,15.79
2023-05-11T03:44:49.603Z,15.67
2023-05-11T03:47:17.694Z,16.15
2023-05-11T03:49:45.623Z,16.45
2023-05-11T03:52:12.510Z,16.24
2023-05-11T03:54:39.543Z,16.15
2023-05-11T03:57:06.393Z,16.13
2023-05-11T03:59:33.129Z,16.23
2023-05-11T04:02:01.436Z,15.87
2023-05-11T04:04:32.886Z,16.07
2023-05-11T04:07:00.973Z,15.36
2023-05-11T04:09:28.505Z,15.60
2023-05-11T04:11:55.335Z,15.45
2023-05-11T04:14:22.070Z,15.45
2023-05-11T04:16:49.081Z,15.72
2023-05-11T04:19:16.725Z,15.78
2023-05-11T04:21:43.696Z,15.68
2023-05-11T04:24:10.719Z,15.51
2023-05-11T04:26:37.624Z,15.13
2023-05-11T04:29:05.177Z,15.72
2023-05-11T04:31:32.289Z,15.31
2023-05-11T04:34:00.348Z,14.99
2023-05-11T04:36:27.277Z,15.41
2023-05-11T04:38:54.685Z,16.03
2023-05-11T04:41:22.739Z,15.34
2023-05-11T04:43:51.148Z,15.44
2023-05-11T04:46:18.257Z,16.00
2023-05-11T04:48:45.142Z,15.72
2023-05-11T04:51:11.982Z,15.36
2023-05-11T04:53:42.504Z,15.61
2023-05-11T04:56:10.040Z,15.88
2023-05-11T04:58:36.797Z,15.51
2023-05-11T05:01:04.157Z,15.38
2023-05-11T05:05:57.560Z,15.59
2023-05-11T05:08:24.488Z,15.27
2023-05-11T05:10:51.854Z,15.62
2023-05-11T05:13:18.773Z,15.72
2023-05-11T05:15:46.097Z,15.64
2023-05-11T05:18:12.971Z,14.77
2023-05-11T05:20:39.985Z,15.18
2023-05-11T05:23:06.865Z,15.28
2023-05-11T05:25:34.200Z,15.07
2023-05-11T05:28:00.936Z,14.85
2023-05-11T05:30:27.973Z,14.98
2023-05-11T05:32:55.256Z,14.70
2023-05-11T05:35:22.489Z,14.73
2023-05-11T05:37:49.847Z,14.97
2023-05-11T05:40:17.594Z,14.86
2023-05-11T05:42:48.054Z,15.39
2023-05-11T05:45:19.777Z,15.22
2023-05-11T05:47:49.118Z,15.79
2023-05-11T05:50:17.749Z,15.59
2023-05-11T05:52:45.181Z,15.86
2023-05-11T05:55:12.960Z,15.49
2023-05-11T05:57:40.175Z,15.56
2023-05-11T06:00:09.866Z,14.89
2023-05-11T06:02:43.384Z,14.86
2023-05-11T06:05:21.319Z,15.08
2023-05-11T06:07:57.901Z,15.88
2023-05-11T06:10:29.201Z,15.56
2023-05-11T06:12:56.173Z,15.41
2023-05-11T06:15:23.688Z,15.87
2023-05-11T06:17:57.417Z,15.80
2023-05-11T06:20:24.615Z,15.50
2023-05-11T06:22:52.178Z,15.58
2023-05-11T06:25:19.490Z,15.89
2023-05-11T06:27:52.124Z,15.85
2023-05-11T06:30:23.821Z,16.33
2023-05-11T06:33:00.482Z,16.03
2023-05-11T06:35:28.192Z,16.06
2023-05-11T06:38:07.714Z,16.25
2023-05-11T06:40:36.237Z,16.00
2023-05-11T06:43:03.081Z,16.02
2023-05-11T06:45:45.458Z,16.00
2023-05-11T06:48:12.676Z,15.96
2023-05-11T06:50:39.961Z,15.78
2023-05-11T06:53:06.891Z,15.85
2023-05-11T06:55:34.783Z,16.24
2023-05-11T06:58:01.616Z,16.24
2023-05-11T07:00:28.418Z,16.42
2023-05-11T07:02:55.306Z,16.48
2023-05-11T07:05:22.322Z,16.54
2023-05-11T07:07:49.105Z,16.49
2023-05-11T07:10:16.013Z,16.62
2023-05-11T07:12:42.892Z,16.50
2023-05-11T07:15:10.134Z,15.74
2023-05-11T07:17:37.013Z,16.11
2023-05-11T07:20:04.078Z,16.20
2023-05-11T07:22:31.021Z,16.71
2023-05-11T07:24:57.732Z,16.61
2023-05-11T07:27:24.639Z,16.48
2023-05-11T07:29:52.637Z,16.87
2023-05-11T07:32:19.726Z,17.27
2023-05-11T07:34:46.514Z,17.06
2023-05-11T07:37:13.351Z,16.32
2023-05-11T07:39:40.214Z,16.86
2023-05-11T07:42:07.294Z,17.22
2023-05-11T07:44:34.352Z,17.31
2023-05-11T07:47:01.142Z,17.65
2023-05-11T07:49:40.047Z,16.97
2023-05-11T07:52:10.547Z,17.08
2023-05-11T07:54:37.469Z,16.96
2023-05-11T07:57:05.333Z,17.70
2023-05-11T07:59:32.351Z,16.89
2023-05-11T08:01:59.584Z,16.54
2023-05-11T08:04:27.600Z,17.24
2023-05-11T08:06:54.611Z,17.80
2023-05-11T08:09:22.530Z,17.69
2023-05-11T08:11:50.022Z,17.14
2023-05-11T08:14:17.209Z,17.73
2023-05-11T08:16:44.505Z,17.84
2023-05-11T08:19:13.101Z,17.89
2023-05-11T08:21:40.487Z,18.06
2023-05-11T08:24:07.605Z,18.30
2023-05-11T08:26:34.715Z,18.10
2023-05-11T08:29:01.485Z,17.89
2023-05-11T08:31:28.275Z,17.44
2023-05-11T08:33:55.234Z,17.53
2023-05-11T08:36:22.138Z,17.82
2023-05-11T08:38:49.044Z,17.79
2023-05-11T08:41:15.910Z,17.28
2023-05-11T08:43:43.688Z,17.74
2023-05-11T08:46:24.316Z,19.13
2023-05-11T08:48:51.283Z,17.75
2023-05-11T08:51:18.308Z,17.73
2023-05-11T08:53:45.182Z,18.07
2023-05-11T08:56:12.418Z,17.92
2023-05-11T08:58:40.014Z,18.16
2023-05-11T09:01:07.487Z,18.31
2023-05-11T09:03:40.262Z,18.44
2023-05-11T09:06:07.977Z,18.49
2023-05-11T09:08:38.775Z,18.74
2023-05-11T09:11:06.440Z,18.73
2023-05-11T09:13:34.129Z,19.44
2023-05-11T09:16:01.066Z,18.49
2023-05-11T09:18:27.954Z,18.85
2023-05-11T09:20:54.901Z,18.48
2023-05-11T09:23:28.829Z,19.49
2023-05-11T09:25:55.945Z,19.23
2023-05-11T09:28:26.131Z,19.31
2023-05-11T09:30:53.802Z,19.33
2023-05-11T09:33:25.877Z,19.52
2023-05-11T09:35:53.939Z,19.85
2023-05-11T09:38:23.210Z,19.51
2023-05-11T09:40:55.300Z,19.35
2023-05-11T09:43:27.825Z,19.11
2023-05-11T09:45:57.542Z,18.82
2023-05-11T09:48:31.907Z,19.75
2023-05-11T09:51:06.724Z,19.11
2023-05-11T09:53:45.816Z,19.56
2023-05-11T09:56:14.109Z,19.43
2023-05-11T09:58:58.055Z,19.46
2023-05-11T10:01:30.609Z,19.26
2023-05-11T10:04:13.376Z,19.30
2023-05-11T10:06:46.133Z,19.83
2023-05-11T10:09:13.845Z,19.89
2023-05-11T10:11:44.550Z,20.56
2023-05-11T10:14:15.153Z,20.07
2023-05-11T10:16:43.332Z,20.35
2023-05-11T10:19:11.695Z,20.95
2023-05-11T10:21:39.472Z,21.51
2023-05-11T10:24:06.837Z,21.05
2023-05-11T10:26:34.242Z,21.55
2023-05-11T10:31:29.517Z,21.76
2023-05-11T10:33:57.400Z,22.06
2023-05-11T10:36:25.512Z,21.58
2023-05-11T10:38:52.332Z,21.42
2023-05-11T10:41:34.558Z,21.49
2023-05-11T10:44:20.264Z,20.96
2023-05-11T10:47:05.347Z,20.80
2023-05-11T10:49:41.254Z,21.14
2023-05-11T10:52:29.416Z,21.58
2023-05-11T10:55:20.568Z,21.49
2023-05-11T10:58:10.959Z,21.48
2023-05-11T11:01:19.304Z,21.36
2023-05-11T11:03:57.379Z,21.97
2023-05-11T11:06:24.709Z,22.08
2023-05-11T11:09:05.543Z,22.02
2023-05-11T11:11:48.039Z,21.74
2023-05-11T11:14:16.398Z,21.93
2023-05-11T11:17:11.727Z,21.72
2023-05-11T11:19:38.726Z,21.65
2023-05-11T11:22:05.956Z,21.65
2023-05-11T11:24:41.079Z,20.99
2023-05-11T11:27:09.155Z,21.69
2023-05-11T11:29:37.326Z,21.53
2023-05-11T11:32:23.145Z,20.88
2023-05-11T11:34:50.680Z,20.92
2023-05-11T11:37:18.686Z,20.76
2023-05-11T11:39:50.514Z,20.73
2023-05-11T11:44:46.401Z,20.99
2023-05-11T11:47:16.883Z,20.81
2023-05-11T11:49:45.320Z,21.13
2023-05-11T11:52:13.656Z,21.55
2023-05-11T11:54:42.080Z,21.52
2023-05-11T11:57:34.030Z,21.18
2023-05-11T12:00:01.410Z,21.55
2023-05-11T12:02:28.681Z,21.38
2023-05-11T12:05:00.657Z,21.29
2023-05-11T12:07:33.104Z,21.50
2023-05-11T12:10:02.759Z,21.51
2023-05-11T12:12:30.498Z,21.70
2023-05-11T12:14:57.849Z,21.08
2023-05-11T12:17:27.361Z,21.61
2023-05-11T12:19:54.303Z,21.22
2023-05-11T12:22:25.215Z,21.94
2023-05-11T12:24:56.448Z,21.58
2023-05-11T12:27:24.539Z,22.20
2023-05-11T12:29:51.541Z,22.60
2023-05-11T12:32:29.428Z,21.78
2023-05-11T12:35:07.268Z,21.50
2023-05-11T12:37:34.358Z,22.10
2023-05-11T12:40:01.182Z,21.73
2023-05-11T12:42:28.181Z,21.10
2023-05-11T12:44:55.802Z,21.88
2023-05-11T12:47:22.681Z,21.87
2023-05-11T12:49:50.336Z,22.71
2023-05-11T12:52:17.084Z,21.99
2023-05-11T12:54:51.358Z,21.09
2023-05-11T12:57:26.339Z,22.27
2023-05-11T13:00:07.260Z,22.48
2023-05-11T13:02:35.234Z,22.92
2023-05-11T13:05:14.612Z,22.58
2023-05-11T13:07:41.980Z,22.23
2023-05-11T13:10:09.004Z,22.01
2023-05-11T13:12:36.549Z,22.75
2023-05-11T13:15:06.898Z,22.97
2023-05-11T13:17:38.722Z,23.36
2023-05-11T13:20:19.729Z,22.61
2023-05-11T13:22:48.096Z,22.66
2023-05-11T13:25:16.953Z,23.13
2023-05-11T13:27:44.189Z,22.51
2023-05-11T13:30:11.646Z,22.65
2023-05-11T13:32:39.290Z,22.57
2023-05-11T13:35:06.932Z,22.87
2023-05-11T13:37:33.754Z,23.06
2023-05-11T13:40:00.933Z,23.01
2023-05-11T13:42:28.654Z,22.89
2023-05-11T13:44:55.412Z,22.46
2023-05-11T13:47:22.835Z,21.98
2023-05-11T13:49:49.625Z,22.53
2023-05-11T13:52:16.328Z,22.21
2023-05-11T13:54:43.005Z,21.83
2023-05-11T13:57:09.781Z,21.79
2023-05-11T13:59:37.106Z,21.51
2023-05-11T14:02:04.384Z,21.50
2023-05-11T14:04:31.385Z,21.66
2023-05-11T14:06:59.066Z,21.83
2023-05-11T14:09:26.669Z,21.96
2023-05-11T14:11:53.871Z,22.24
2023-05-11T14:14:20.603Z,21.63
2023-05-11T14:16:47.509Z,21.53
2023-05-11T14:19:15.330Z,22.16
2023-05-11T14:21:42.277Z,21.72
2023-05-11T14:24:12.550Z,22.28
2023-05-11T14:26:40.404Z,21.30
2023-05-11T14:29:07.651Z,21.86
2023-05-11T14:31:35.450Z,21.21
2023-05-11T14:34:03.477Z,21.41
2023-05-11T14:36:30.565Z,21.51
2023-05-11T14:38:57.272Z,21.71
2023-05-11T14:41:24.150Z,21.48
2023-05-11T14:43:51.363Z,22.08
2023-05-11T14:46:18.367Z,21.00
2023-05-11T14:48:45.441Z,21.51
2023-05-11T14:51:12.255Z,21.43
2023-05-11T14:53:39.488Z,20.91
2023-05-11T14:56:06.744Z,21.46
2023-05-11T14:58:34.035Z,20.90
2023-05-11T15:01:00.922Z,20.10
2023-05-11T15:03:27.859Z,19.83
2023-05-11T15:05:54.750Z,20.26
2023-05-11T15:08:29.681Z,19.29
2023-05-11T15:10:57.523Z,19.68
2023-05-11T15:13:24.364Z,20.12
2023-05-11T15:15:51.607Z,20.06
2023-05-11T15:18:19.338Z,19.30
2023-05-11T15:20:47.017Z,19.27
2023-05-11T15:23:16.972Z,18.46
2023-05-11T15:25:45.088Z,18.80
2023-05-11T15:28:12.516Z,18.92
2023-05-11T15:30:41.396Z,19.10
2023-05-11T15:33:09.135Z,19.55
2023-05-11T15:35:36.731Z,18.79
2023-05-11T15:38:04.140Z,19.40
2023-05-11T15:40:31.008Z,19.32
2023-05-11T15:42:58.929Z,19.26
2023-05-11T15:45:26.293Z,18.91
2023-05-11T15:47:54.150Z,19.02
2023-05-11T15:50:22.345Z,19.02
2023-05-11T15:52:49.371Z,18.81
2023-05-11T15:55:16.592Z,19.11
2023-05-11T15:57:43.448Z,18.90
2023-05-11T16:00:11.116Z,19.07
2023-05-11T16:02:38.047Z,19.24
2023-05-11T16:05:05.321Z,18.89
2023-05-11T16:07:32.530Z,19.22
2023-05-11T16:09:59.566Z,19.52
2023-05-11T16:12:26.357Z,19.28
2023-05-11T16:14:53.099Z,18.28
2023-05-11T16:17:19.823Z,18.70
2023-05-11T16:19:46.838Z,18.92
2023-05-11T16:22:13.535Z,18.76
2023-05-11T16:24:40.490Z,18.97
2023-05-11T16:27:07.394Z,19.11
2023-05-11T16:29:34.455Z,19.19
2023-05-11T16:32:01.508Z,19.11
2023-05-11T16:34:31.414Z,18.83
2023-05-11T16:36:59.357Z,19.26
2023-05-11T16:39:26.833Z,18.93
2023-05-11T16:41:53.717Z,18.94
2023-05-11T16:44:21.167Z,18.61
2023-05-11T16:46:49.167Z,19.20
2023-05-11T16:49:16.410Z,19.15
2023-05-11T16:51:43.650Z,18.70
2023-05-11T16:54:13.661Z,18.42
2023-05-11T16:56:40.559Z,18.47
2023-05-11T16:59:08.878Z,18.50
2023-05-11T17:01:35.609Z,18.45
2023-05-11T17:04:02.879Z,18.34
2023-05-11T17:06:31.516Z,18.61
2023-05-11T17:08:58.362Z,18.32
2023-05-11T17:11:24.999Z,18.33
2023-05-11T17:13:51.930Z,18.52
2023-05-11T17:16:19.587Z,18.50
2023-05-11T17:18:49.958Z,18.68
2023-05-11T17:21:17.505Z,18.95
2023-05-11T17:23:45.151Z,18.44
2023-05-11T17:26:13.940Z,18.67
2023-05-11T17:28:40.747Z,18.48
2023-05-11T17:31:16.733Z,18.61
2023-05-11T17:33:43.709Z,18.73
2023-05-11T17:36:11.734Z,18.78
2023-05-11T17:38:39.927Z,18.78
2023-05-11T17:41:07.001Z,18.69
2023-05-11T17:43:35.299Z,18.68
2023-05-11T17:46:04.191Z,18.65
2023-05-11T17:48:32.154Z,17.73
2023-05-11T17:50:59.290Z,18.00
2023-05-11T17:53:27.425Z,18.52
2023-05-11T17:55:54.153Z,18.90
2023-05-11T17:58:21.049Z,19.07
2023-05-11T18:00:49.060Z,18.69
2023-05-11T18:03:16.842Z,18.40
2023-05-11T18:05:48.526Z,18.51
2023-05-11T18:08:16.567Z,18.51
2023-05-11T18:10:43.462Z,18.72
2023-05-11T18:13:10.566Z,18.83
2023-05-11T18:15:37.850Z,18.51
2023-05-11T18:18:04.730Z,18.83
2023-05-11T18:20:31.541Z,18.57
2023-05-11T18:22:58.526Z,18.70
2023-05-11T18:25:27.871Z,18.84
2023-05-11T18:27:54.637Z,18.82
2023-05-11T18:30:21.654Z,18.60
2023-05-11T18:32:48.685Z,18.43
2023-05-11T18:35:16.807Z,19.02
2023-05-11T18:37:43.569Z,18.44
2023-05-11T18:40:10.820Z,18.60
2023-05-11T18:42:37.814Z,18.25
2023-05-11T18:45:05.027Z,18.37
2023-05-11T18:47:35.907Z,18.19
2023-05-11T18:50:04.388Z,18.66
2023-05-11T18:52:31.342Z,18.55
2023-05-11T18:54:58.900Z,18.46
2023-05-11T18:57:25.614Z,18.67
2023-05-11T18:59:53.092Z,18.70
2023-05-11T19:02:20.601Z,18.67
2023-05-11T19:04:47.433Z,18.58
2023-05-11T19:07:14.905Z,18.51
2023-05-11T19:09:42.592Z,18.44
2023-05-11T19:12:09.624Z,18.68
2023-05-11T19:14:37.445Z,18.19
2023-05-11T19:17:05.183Z,17.94
2023-05-11T19:19:32.295Z,18.50
2023-05-11T19:21:59.410Z,18.46
2023-05-11T19:24:26.700Z,17.99
2023-05-11T19:27:06.000Z,18.47
2023-05-11T19:29:34.960Z,18.25
2023-05-11T19:32:01.921Z,18.32
2023-05-11T19:34:28.649Z,18.40
2023-05-11T19:36:55.464Z,17.97
2023-05-11T19:39:22.199Z,18.37
2023-05-11T19:41:49.054Z,18.20
2023-05-11T19:44:17.049Z,18.48
2023-05-11T19:46:46.851Z,18.70
2023-05-11T19:49:15.323Z,18.69
2023-05-11T19:51:42.836Z,18.41
2023-05-11T19:54:11.090Z,18.59
2023-05-11T19:56:38.216Z,18.48
2023-05-11T19:59:05.210Z,18.25
2023-05-11T20:01:32.124Z,18.72
2023-05-11T20:03:59.441Z,18.81
2023-05-11T20:06:26.684Z,18.86
2023-05-11T20:08:54.290Z,18.76
2023-05-11T20:11:22.681Z,18.79
2023-05-11T20:13:49.641Z,18.48
2023-05-11T20:16:16.557Z,18.85
2023-05-11T20:18:43.562Z,18.93
2023-05-11T20:21:10.703Z,19.05
2023-05-11T20:23:39.499Z,19.02
2023-05-11T20:26:06.615Z,18.72
2023-05-11T20:28:33.623Z,18.78
2023-05-11T20:31:00.425Z,18.79
2023-05-11T20:35:57.066Z,19.07
2023-05-11T20:38:23.796Z,19.02
2023-05-11T20:40:50.463Z,18.99
2023-05-11T20:43:17.195Z,18.94
2023-05-11T20:45:43.999Z,18.83
2023-05-11T20:48:11.128Z,18.87
2023-05-11T20:50:39.373Z,18.98
2023-05-11T20:53:06.219Z,18.97
2023-05-11T20:55:33.075Z,18.79
2023-05-11T20:57:59.948Z,18.82
2023-05-11T21:00:26.610Z,18.60
2023-05-11T21:02:54.092Z,18.73
2023-05-11T21:05:21.278Z,18.87
2023-05-11T21:07:49.380Z,18.80
2023-05-11T21:10:16.198Z,18.82
2023-05-11T21:12:43.070Z,18.73
2023-05-11T21:15:10.146Z,18.89
2023-05-11T21:17:37.094Z,19.06
2023-05-11T21:20:07.342Z,18.87
2023-05-11T21:22:35.336Z,18.70
2023-05-11T21:25:05.685Z,18.96
2023-05-11T21:27:34.088Z,18.51
2023-05-11T21:30:01.014Z,18.59
2023-05-11T21:32:27.794Z,18.57
2023-05-11T21:34:55.141Z,18.72
2023-05-11T21:46:31.167Z,18.86
2023-05-11T21:48:58.088Z,18.99
2023-05-11T22:03:31.891Z,19.12
2023-05-11T22:05:59.330Z,19.09
2023-05-11T22:08:26.196Z,19.09
2023-05-11T22:10:59.735Z,19.05
2023-05-11T22:13:26.826Z,19.11
2023-05-11T22:15:53.576Z,19.15
2023-05-11T22:18:20.552Z,19.13
2023-05-11T22:20:53.512Z,19.10
2023-05-11T22:23:21.087Z,19.19
2023-05-11T22:25:48.016Z,19.04
2023-05-11T22:28:15.070Z,19.05
2023-05-11T22:30:41.986Z,18.99
2023-05-11T22:33:09.079Z,19.05
2023-05-11T22:35:37.252Z,19.08
2023-05-11T22:38:10.448Z,18.95
2023-05-11T22:40:40.041Z,19.09
2023-05-11T22:43:06.865Z,19.08
2023-05-11T22:45:33.821Z,19.06
2023-05-11T22:48:09.611Z,18.71
2023-05-11T22:50:36.453Z,18.78
2023-05-11T22:53:03.360Z,18.86
2023-05-11T22:55:30.086Z,18.69
2023-05-11T22:57:56.811Z,18.76
2023-05-11T23:00:23.622Z,18.79
2023-05-11T23:02:50.411Z,18.71
2023-05-11T23:05:17.203Z,18.85
2023-05-11T23:07:43.958Z,18.75
2023-05-11T23:10:11.007Z,18.75
2023-05-11T23:12:37.815Z,18.81
2023-05-11T23:15:05.263Z,18.90
2023-05-11T23:17:32.177Z,18.84
2023-05-11T23:19:58.962Z,18.83
2023-05-11T23:22:26.124Z,18.90
2023-05-11T23:24:55.659Z,19.03
2023-05-11T23:27:22.590Z,18.70
2023-05-11T23:29:49.540Z,18.62
2023-05-11T23:32:16.512Z,18.67
2023-05-11T23:34:43.181Z,18.74
2023-05-11T23:37:10.033Z,18.60
2023-05-11T23:39:36.829Z,18.77
2023-05-11T23:42:04.463Z,18.79
2023-05-11T23:44:31.735Z,18.82
2023-05-11T23:46:58.699Z,18.83
2023-05-11T23:49:26.216Z,18.85
2023-05-11T23:51:54.129Z,18.81
2023-05-11T23:54:21.315Z,18.78
2023-05-11T23:56:48.140Z,18.82
2023-05-11T23:59:15.041Z,18.92
